createdAt,value
2017-12-02T00:00:26.674Z,27.50
2017-12-02T00:02:52.532Z,27.90
2017-12-02T00:05:18.356Z,28.20
2017-12-02T00:07:44.190Z,26.47
2017-12-02T00:10:09.982Z,28.83
2017-12-02T00:12:35.778Z,30.27
2017-12-02T00:15:01.615Z,28.00
2017-12-02T00:17:27.443Z,27.87
2017-12-02T00:19:53.272Z,27.90
2017-12-02T00:22:19.120Z,28.67
2017-12-02T00:24:44.945Z,24.70
2017-12-02T00:27:10.772Z,25.87
2017-12-02T00:29:41.678Z,26.47
2017-12-02T00:32:07.477Z,25.42
2017-12-02T00:34:34.175Z,26.17
2017-12-02T00:37:00.013Z,26.17
2017-12-02T00:39:28.978Z,26.30
2017-12-02T00:41:54.837Z,26.27
2017-12-02T00:44:24.156Z,24.00
2017-12-02T00:46:49.988Z,23.30
2017-12-02T00:49:15.777Z,23.87
2017-12-02T00:51:41.647Z,21.00
2017-12-02T00:54:07.450Z,24.33
2017-12-02T00:56:36.559Z,22.77
2017-12-02T00:59:02.363Z,24.33
2017-12-02T01:01:29.911Z,22.00
2017-12-02T01:03:55.725Z,22.98
2017-12-02T01:08:52.261Z,23.50
2017-12-02T01:11:20.013Z,23.77
2017-12-02T01:13:45.864Z,24.30
2017-12-02T01:16:15.425Z,23.77
2017-12-02T01:18:41.280Z,23.92
2017-12-02T01:21:10.207Z,23.60
2017-12-02T01:23:36.036Z,25.80
2017-12-02T01:26:01.887Z,25.30
2017-12-02T01:28:27.693Z,26.27
2017-12-02T01:30:53.546Z,23.67
2017-12-02T01:33:21.140Z,24.80
2017-12-02T01:35:46.931Z,25.90
2017-12-02T01:38:16.751Z,24.73
2017-12-02T01:40:42.520Z,24.48
2017-12-02T01:43:11.864Z,24.77
2017-12-02T01:45:37.662Z,25.80
2017-12-02T01:48:05.242Z,23.47
2017-12-02T01:50:31.073Z,24.70
2017-12-02T01:53:00.816Z,25.03
2017-12-02T01:55:26.592Z,24.65
2017-12-02T01:57:54.444Z,26.43
2017-12-02T02:00:20.239Z,22.45
2017-12-02T02:02:46.093Z,26.10
2017-12-02T02:05:11.948Z,25.07
2017-12-02T02:07:38.514Z,22.83
2017-12-02T02:10:07.351Z,24.27
2017-12-02T02:12:33.107Z,25.20
2017-12-02T02:15:00.635Z,24.60
2017-12-02T02:17:26.387Z,24.80
2017-12-02T02:19:52.829Z,25.50
2017-12-02T02:22:18.611Z,25.42
2017-12-02T02:24:44.379Z,25.73
2017-12-02T02:27:13.508Z,27.30
2017-12-02T02:29:39.355Z,24.67
2017-12-02T02:32:07.017Z,23.43
2017-12-02T02:34:32.861Z,25.65
2017-12-02T02:37:01.900Z,24.87
2017-12-02T02:39:27.687Z,23.42
2017-12-02T02:41:57.058Z,24.33
2017-12-02T02:44:22.886Z,27.27
2017-12-02T02:46:51.194Z,25.33
2017-12-02T02:49:17.023Z,24.67
2017-12-02T02:51:46.072Z,26.20
2017-12-02T02:54:11.869Z,25.88
2017-12-02T02:56:40.608Z,24.90
2017-12-02T02:59:06.392Z,27.65
2017-12-02T03:01:35.343Z,25.90
2017-12-02T03:04:01.125Z,25.77
2017-12-02T03:06:29.764Z,27.27
2017-12-02T03:08:55.593Z,24.20
2017-12-02T03:13:52.167Z,26.60
2017-12-02T03:16:18.032Z,24.40
2017-12-02T03:18:43.867Z,26.20
2017-12-02T03:21:09.717Z,25.70
2017-12-02T03:23:37.116Z,23.83
2017-12-02T03:26:02.958Z,26.17
2017-12-02T03:28:31.298Z,24.63
2017-12-02T03:30:57.149Z,27.02
2017-12-02T03:33:26.821Z,26.87
2017-12-02T03:35:52.651Z,26.62
2017-12-02T03:38:22.428Z,26.77
2017-12-02T03:40:48.252Z,25.77
2017-12-02T03:43:15.758Z,24.30
2017-12-02T03:45:41.606Z,25.62
2017-12-02T03:48:11.176Z,24.87
2017-12-02T03:50:36.986Z,25.17
2017-12-02T03:53:02.762Z,26.43
2017-12-02T03:55:28.666Z,23.57
2017-12-02T03:57:54.482Z,25.67
2017-12-02T04:00:23.489Z,23.37
2017-12-02T04:02:49.398Z,26.40
2017-12-02T04:05:17.044Z,22.73
2017-12-02T04:07:42.928Z,24.48
2017-12-02T04:10:11.332Z,24.97
2017-12-02T04:12:37.189Z,24.80
2017-12-02T04:15:06.958Z,21.60
2017-12-02T04:17:32.820Z,25.92
2017-12-02T04:20:02.413Z,25.00
2017-12-02T04:22:28.241Z,25.02
2017-12-02T04:24:55.965Z,21.67
2017-12-02T04:27:21.783Z,22.60
2017-12-02T04:29:47.642Z,22.37
2017-12-02T04:32:13.404Z,23.40
2017-12-02T04:34:39.252Z,24.07
2017-12-02T04:37:08.322Z,23.80
2017-12-02T04:39:34.127Z,23.75
2017-12-02T04:42:01.934Z,24.53
2017-12-02T04:44:27.787Z,22.17
2017-12-02T04:46:57.973Z,25.10
2017-12-02T04:49:23.836Z,20.92
2017-12-02T04:51:51.427Z,24.63
2017-12-02T04:54:17.277Z,23.02
2017-12-02T04:56:45.907Z,24.20
2017-12-02T04:59:11.713Z,23.12
2017-12-02T05:01:38.288Z,23.27
2017-12-02T05:04:04.106Z,21.40
2017-12-02T05:06:29.976Z,22.27
2017-12-02T05:08:57.732Z,21.67
2017-12-02T05:11:23.572Z,24.20
2017-12-02T05:13:52.882Z,22.83
2017-12-02T05:16:18.705Z,23.48
2017-12-02T05:18:48.173Z,23.87
2017-12-02T05:21:13.973Z,23.95
2017-12-02T05:23:43.234Z,24.60
2017-12-02T05:26:09.008Z,23.73
2017-12-02T05:28:37.662Z,25.30
2017-12-02T05:31:03.434Z,24.67
2017-12-02T05:33:32.734Z,23.87
2017-12-02T05:35:58.521Z,21.40
2017-12-02T05:38:26.101Z,21.50
2017-12-02T05:40:51.902Z,23.12
2017-12-02T05:43:17.748Z,21.87
2017-12-02T05:45:43.614Z,22.80
2017-12-02T05:48:09.456Z,20.70
2017-12-02T05:50:39.278Z,23.73
2017-12-02T05:53:05.091Z,25.08
2017-12-02T05:55:32.510Z,23.30
2017-12-02T05:57:58.400Z,23.08
2017-12-02T06:00:27.061Z,24.77
2017-12-02T06:02:52.912Z,22.83
2017-12-02T06:07:49.413Z,24.48
2017-12-02T06:10:16.795Z,24.33
2017-12-02T06:12:42.574Z,25.60
2017-12-02T06:15:11.616Z,25.97
2017-12-02T06:17:37.430Z,24.63
2017-12-02T06:20:03.240Z,25.17
2017-12-02T06:22:29.056Z,27.00
2017-12-02T06:24:54.929Z,25.40
2017-12-02T06:27:23.895Z,28.33
2017-12-02T06:29:49.756Z,25.25
2017-12-02T06:32:17.559Z,24.47
2017-12-02T06:34:43.383Z,23.38
2017-12-02T06:39:40.016Z,24.75
2017-12-02T06:42:07.424Z,29.60
2017-12-02T06:44:33.269Z,26.42
2017-12-02T06:47:02.591Z,25.13
2017-12-02T06:49:28.427Z,22.08
2017-12-02T06:51:58.226Z,20.93
2017-12-02T06:54:24.086Z,25.48
2017-12-02T06:56:49.913Z,23.33
2017-12-02T06:59:15.754Z,24.27
2017-12-02T07:01:41.658Z,23.93
2017-12-02T07:04:08.604Z,22.53
2017-12-02T07:06:34.485Z,24.60
2017-12-02T07:09:03.883Z,25.20
2017-12-02T07:11:29.729Z,23.75
2017-12-02T07:13:58.604Z,29.00
2017-12-02T07:16:24.493Z,29.25
2017-12-02T07:18:54.164Z,28.37
2017-12-02T07:21:20.037Z,29.23
2017-12-02T07:23:47.421Z,31.97
2017-12-02T07:26:13.250Z,26.23
2017-12-02T07:28:42.682Z,26.07
2017-12-02T07:31:08.532Z,28.00
2017-12-02T07:33:34.381Z,23.30
2017-12-02T07:36:00.196Z,24.63
2017-12-02T07:38:25.999Z,25.40
2017-12-02T07:40:53.629Z,24.20
2017-12-02T07:43:19.451Z,23.77
2017-12-02T07:45:49.048Z,23.00
2017-12-02T07:48:14.889Z,22.55
2017-12-02T07:50:43.088Z,24.53
2017-12-02T07:53:08.926Z,21.75
2017-12-02T07:55:37.693Z,24.30
2017-12-02T07:58:03.536Z,27.62
2017-12-02T08:03:00.220Z,25.77
2017-12-02T08:05:27.898Z,34.10
2017-12-02T08:07:53.748Z,39.15
2017-12-02T08:10:19.566Z,30.17
2017-12-02T08:12:45.435Z,40.53
2017-12-02T08:15:11.295Z,31.83
2017-12-02T08:17:38.850Z,31.90
2017-12-02T08:20:04.696Z,20.45
2017-12-02T08:22:33.383Z,23.77
2017-12-02T08:24:59.244Z,20.80
2017-12-02T08:29:55.948Z,21.92
2017-12-02T08:32:23.468Z,24.63
2017-12-02T08:34:49.254Z,25.25
2017-12-02T08:37:17.841Z,25.23
2017-12-02T08:39:43.722Z,23.75
2017-12-02T08:42:12.786Z,27.47
2017-12-02T08:44:38.663Z,23.55
2017-12-02T08:47:04.501Z,20.90
2017-12-02T08:49:30.294Z,20.40
2017-12-02T08:51:56.209Z,27.53
2017-12-02T08:54:25.342Z,20.97
2017-12-02T08:56:51.214Z,21.02
2017-12-02T08:59:20.738Z,21.40
2017-12-02T09:01:46.629Z,20.62
2017-12-02T09:04:14.001Z,18.67
2017-12-02T09:06:39.864Z,19.00
2017-12-02T09:09:09.692Z,18.93
2017-12-02T09:11:35.534Z,21.00
2017-12-02T09:14:03.292Z,19.00
2017-12-02T09:16:29.148Z,19.90
2017-12-02T09:18:58.432Z,19.40
2017-12-02T09:21:24.297Z,20.20
2017-12-02T09:23:50.160Z,19.03
2017-12-02T09:26:15.984Z,18.93
2017-12-02T09:28:41.836Z,17.20
2017-12-02T09:31:10.940Z,18.30
2017-12-02T09:33:36.769Z,17.75
2017-12-02T09:36:05.536Z,16.47
2017-12-02T09:38:31.349Z,19.45
2017-12-02T09:40:59.044Z,18.23
2017-12-02T09:43:24.950Z,19.45
2017-12-02T09:45:54.135Z,17.07
2017-12-02T09:48:19.950Z,16.83
2017-12-02T09:50:48.883Z,17.00
2017-12-02T09:53:14.702Z,17.20
2017-12-02T09:55:43.200Z,17.20
2017-12-02T09:58:09.045Z,14.95
2017-12-02T10:00:34.878Z,13.97
2017-12-02T10:03:00.703Z,11.53
2017-12-02T10:05:26.492Z,15.10
2017-12-02T10:07:55.575Z,13.20
2017-12-02T10:10:21.372Z,15.15
2017-12-02T10:12:50.864Z,14.60
2017-12-02T10:15:16.695Z,15.68
2017-12-02T10:17:44.471Z,15.33
2017-12-02T10:20:10.369Z,18.08
2017-12-02T10:22:39.491Z,16.33
2017-12-02T10:25:05.376Z,17.33
2017-12-02T10:27:34.223Z,14.73
2017-12-02T10:30:00.089Z,15.32
2017-12-02T10:32:29.365Z,16.07
2017-12-02T10:34:55.244Z,15.25
2017-12-02T10:37:21.099Z,15.93
2017-12-02T10:39:46.986Z,15.23
2017-12-02T10:42:12.829Z,14.10
2017-12-02T10:44:41.889Z,17.70
2017-12-02T10:47:07.743Z,16.85
2017-12-02T10:49:35.475Z,16.20
2017-12-02T10:52:01.317Z,15.93
2017-12-02T10:54:29.740Z,17.30
2017-12-02T10:56:55.544Z,15.10
2017-12-02T10:59:24.976Z,17.83
2017-12-02T11:01:50.836Z,16.92
2017-12-02T11:04:19.692Z,16.20
2017-12-02T11:06:45.557Z,17.77
2017-12-02T11:09:13.990Z,16.80
2017-12-02T11:11:39.762Z,16.42
2017-12-02T11:14:05.592Z,15.17
2017-12-02T11:16:31.408Z,13.53
2017-12-02T11:18:57.231Z,15.77
2017-12-02T11:21:26.240Z,14.77
2017-12-02T11:23:52.012Z,16.30
2017-12-02T11:26:20.302Z,15.90
2017-12-02T11:28:46.165Z,13.85
2017-12-02T11:31:15.800Z,14.70
2017-12-02T11:33:41.576Z,16.60
2017-12-02T11:36:11.066Z,14.43
2017-12-02T11:38:36.874Z,14.75
2017-12-02T11:41:04.525Z,14.00
2017-12-02T11:43:30.334Z,13.88
2017-12-02T11:45:59.522Z,13.00
2017-12-02T11:48:25.368Z,17.00
2017-12-02T11:50:51.188Z,15.53
2017-12-02T11:53:17.035Z,14.80
2017-12-02T11:55:42.998Z,16.67
2017-12-02T11:58:10.682Z,17.17
2017-12-02T12:00:36.545Z,17.17
2017-12-02T12:03:05.283Z,16.60
2017-12-02T12:05:31.091Z,18.20
2017-12-02T12:10:27.735Z,18.77
2017-12-02T12:12:55.197Z,18.03
2017-12-02T12:15:21.030Z,16.95
2017-12-02T12:17:51.112Z,16.27
2017-12-02T12:20:16.886Z,17.27
2017-12-02T12:22:44.627Z,16.40
2017-12-02T12:25:10.467Z,18.05
2017-12-02T12:27:36.270Z,18.40
2017-12-02T12:30:02.088Z,19.13
2017-12-02T12:32:27.892Z,17.60
2017-12-02T12:34:56.006Z,16.63
2017-12-02T12:37:21.861Z,17.40
2017-12-02T12:42:18.647Z,19.27
2017-12-02T12:44:45.736Z,19.00
2017-12-02T12:47:11.542Z,19.50
2017-12-02T12:49:41.830Z,19.80
2017-12-02T12:52:07.657Z,17.35
2017-12-02T12:54:35.366Z,18.23
2017-12-02T12:57:01.164Z,16.75
2017-12-02T12:59:31.035Z,16.60
2017-12-02T13:01:56.923Z,16.95
2017-12-02T13:04:22.954Z,16.80
2017-12-02T13:06:48.813Z,14.00
2017-12-02T13:09:14.594Z,14.50
2017-12-02T13:11:42.151Z,15.47
2017-12-02T13:14:07.972Z,13.30
2017-12-02T13:16:37.609Z,14.03
2017-12-02T13:19:03.392Z,15.20
2017-12-02T13:21:31.146Z,14.83
2017-12-02T13:23:56.990Z,15.93
2017-12-02T13:26:29.688Z,11.80
2017-12-02T13:28:55.549Z,14.48
2017-12-02T13:31:21.348Z,15.10
2017-12-02T13:33:47.166Z,13.20
2017-12-02T13:36:16.939Z,12.70
2017-12-02T13:38:42.758Z,11.70
2017-12-02T13:41:08.614Z,13.23
2017-12-02T13:43:34.422Z,12.43
2017-12-02T13:46:00.199Z,15.37
2017-12-02T13:48:27.145Z,13.93
2017-12-02T13:50:52.991Z,12.88
2017-12-02T13:53:21.883Z,15.43
2017-12-02T13:55:47.708Z,16.30
2017-12-02T13:58:17.008Z,14.73
2017-12-02T14:00:42.830Z,14.70
2017-12-02T14:03:12.326Z,13.43
2017-12-02T14:05:38.188Z,13.70
2017-12-02T14:08:07.303Z,15.03
2017-12-02T14:10:33.152Z,14.10
2017-12-02T14:13:00.488Z,14.50
2017-12-02T14:15:26.336Z,13.57
2017-12-02T14:17:52.114Z,13.37
2017-12-02T14:20:17.931Z,13.20
2017-12-02T14:22:43.748Z,13.03
2017-12-02T14:25:13.574Z,14.27
2017-12-02T14:27:39.366Z,14.60
2017-12-02T14:30:06.787Z,14.23
2017-12-02T14:32:32.586Z,18.35
2017-12-02T14:35:02.119Z,16.53
2017-12-02T14:37:27.956Z,17.20
2017-12-02T14:39:57.114Z,11.70
2017-12-02T14:42:22.908Z,14.40
2017-12-02T14:44:52.544Z,15.07
2017-12-02T14:47:18.372Z,17.45
2017-12-02T14:49:45.913Z,18.47
2017-12-02T14:52:11.714Z,18.80
2017-12-02T14:54:37.532Z,17.87
2017-12-02T14:57:03.357Z,19.30
2017-12-02T14:59:29.144Z,19.90
2017-12-02T15:01:58.776Z,20.20
2017-12-02T15:07:09.014Z,20.50
2017-12-02T15:09:34.805Z,20.67
2017-12-02T15:12:00.722Z,20.00
2017-12-02T15:14:26.450Z,18.93
2017-12-02T15:16:52.250Z,19.97
2017-12-02T15:19:18.031Z,19.53
2017-12-02T15:21:43.833Z,22.10
2017-12-02T15:24:09.705Z,20.70
2017-12-02T15:26:35.516Z,19.20
2017-12-02T15:29:01.336Z,23.50
2017-12-02T15:31:27.160Z,20.80
2017-12-02T15:33:52.980Z,21.10
2017-12-02T15:36:18.806Z,18.60
2017-12-02T15:38:44.623Z,20.57
2017-12-02T15:41:10.458Z,20.37
2017-12-02T15:43:37.694Z,21.80
2017-12-02T15:46:03.523Z,19.35
2017-12-02T15:48:32.168Z,20.90
2017-12-02T15:50:58.006Z,18.90
2017-12-02T15:53:27.372Z,20.33
2017-12-02T15:55:53.250Z,21.92
2017-12-02T15:58:22.635Z,22.43
2017-12-02T16:00:48.452Z,48.58
2017-12-02T16:03:16.366Z,61.13
2017-12-02T16:05:42.191Z,22.45
2017-12-02T16:08:08.004Z,20.27
2017-12-02T16:10:33.826Z,24.40
2017-12-02T16:12:59.705Z,22.03
2017-12-02T16:15:28.074Z,27.03
2017-12-02T16:17:53.936Z,30.25
2017-12-02T16:20:22.361Z,21.17
2017-12-02T16:22:48.176Z,22.58
2017-12-02T16:27:44.932Z,22.58
2017-12-02T16:30:12.534Z,21.50
2017-12-02T16:32:38.344Z,22.95
2017-12-02T16:35:07.352Z,22.47
2017-12-02T16:37:33.125Z,23.08
2017-12-02T16:40:02.386Z,22.20
2017-12-02T16:42:28.191Z,23.30
2017-12-02T16:44:54.042Z,24.50
2017-12-02T16:47:19.885Z,23.67
2017-12-02T16:49:45.739Z,23.13
2017-12-02T16:52:13.262Z,24.03
2017-12-02T16:54:39.073Z,22.65
2017-12-02T16:57:08.151Z,22.00
2017-12-02T16:59:33.997Z,22.55
2017-12-02T17:02:02.892Z,21.43
2017-12-02T17:04:28.747Z,21.67
2017-12-02T17:06:57.772Z,24.30
2017-12-02T17:09:23.659Z,26.02
2017-12-02T17:12:23.800Z,23.05
2017-12-02T17:14:49.634Z,23.77
2017-12-02T17:17:15.444Z,22.90
2017-12-02T17:19:41.262Z,20.93
2017-12-02T17:22:07.032Z,25.10
2017-12-02T17:24:32.882Z,22.70
2017-12-02T17:26:58.712Z,23.03
2017-12-02T17:29:24.559Z,22.50
2017-12-02T17:31:50.454Z,25.40
2017-12-02T17:34:16.279Z,22.23
2017-12-02T17:36:42.076Z,22.97
2017-12-02T17:39:08.492Z,23.13
2017-12-02T17:41:34.333Z,20.77
2017-12-02T17:44:03.639Z,19.90
2017-12-02T17:46:29.461Z,22.55
2017-12-02T17:48:58.741Z,24.07
2017-12-02T17:51:24.517Z,22.08
2017-12-02T17:53:53.602Z,23.83
2017-12-02T17:56:19.445Z,22.83
2017-12-02T17:58:47.459Z,21.60
2017-12-02T18:01:13.287Z,22.52
2017-12-02T18:03:39.187Z,23.03
2017-12-02T18:06:04.993Z,24.37
2017-12-02T18:08:30.803Z,23.20
2017-12-02T18:10:59.651Z,23.07
2017-12-02T18:13:25.464Z,22.08
2017-12-02T18:15:54.333Z,20.50
2017-12-02T18:18:20.162Z,21.30
2017-12-02T18:20:49.003Z,22.53
2017-12-02T18:23:14.801Z,21.48
2017-12-02T18:25:43.731Z,22.57
2017-12-02T18:28:09.632Z,23.35
2017-12-02T18:30:38.436Z,23.83
2017-12-02T18:33:04.265Z,23.35
2017-12-02T18:35:33.096Z,23.77
2017-12-02T18:37:58.931Z,24.45
2017-12-02T18:40:24.739Z,23.67
2017-12-02T18:42:50.546Z,23.40
2017-12-02T18:45:16.380Z,23.33
2017-12-02T18:47:45.946Z,21.20
2017-12-02T18:50:11.819Z,21.95
2017-12-02T18:52:39.605Z,25.30
2017-12-02T18:58:18.204Z,23.70
2017-12-02T19:00:44.022Z,23.02
2017-12-02T19:03:09.869Z,22.77
2017-12-02T19:05:35.742Z,23.63
2017-12-02T19:08:01.528Z,22.50
2017-12-02T19:10:27.415Z,23.17
2017-12-02T19:12:53.238Z,23.80
2017-12-02T19:15:19.046Z,23.53
2017-12-02T19:17:44.941Z,22.10
2017-12-02T19:20:10.761Z,23.53
2017-12-02T19:22:36.664Z,23.73
2017-12-02T19:25:02.535Z,21.00
2017-12-02T19:27:28.401Z,23.50
2017-12-02T19:29:54.256Z,22.67
2017-12-02T19:32:20.059Z,23.67
2017-12-02T19:34:45.935Z,24.00
2017-12-02T19:37:11.760Z,25.63
2017-12-02T19:39:37.622Z,24.50
2017-12-02T19:42:04.195Z,25.80
2017-12-02T19:44:30.033Z,25.10
2017-12-02T19:46:55.892Z,26.30
2017-12-02T19:49:24.956Z,26.97
2017-12-02T20:09:11.714Z,24.08
2017-12-02T20:23:27.852Z,26.75
2017-12-02T20:43:21.000Z,24.73
2017-12-02T20:45:46.846Z,24.23
2017-12-02T20:48:12.657Z,25.93
2017-12-02T20:50:38.479Z,23.77
2017-12-02T20:53:04.334Z,22.30
2017-12-02T20:55:30.214Z,23.23
2017-12-02T20:57:56.058Z,22.97
2017-12-02T21:00:21.909Z,23.23
2017-12-02T21:02:47.681Z,23.00
2017-12-02T21:05:13.614Z,23.23
2017-12-02T21:07:39.480Z,24.90
2017-12-02T21:10:05.318Z,24.83
2017-12-02T21:12:31.119Z,24.10
2017-12-02T21:14:56.971Z,24.20
2017-12-02T21:17:22.846Z,24.60
2017-12-02T21:19:48.712Z,26.70
2017-12-02T21:22:14.475Z,24.90
2017-12-02T21:24:40.330Z,21.90
2017-12-02T21:27:06.203Z,21.10
2017-12-02T21:29:32.061Z,24.70
2017-12-02T21:31:57.891Z,25.47
2017-12-02T21:34:24.866Z,28.00
2017-12-02T21:36:50.782Z,25.08
2017-12-02T21:39:20.643Z,24.10
2017-12-02T21:41:46.506Z,26.20
2017-12-02T21:44:12.417Z,24.27
2017-12-02T21:46:38.298Z,23.67
2017-12-02T21:49:04.200Z,23.00
2017-12-02T21:51:31.347Z,22.23
2017-12-02T21:56:49.808Z,24.05
2017-12-02T21:59:15.628Z,23.93
2017-12-02T22:01:41.479Z,26.43
2017-12-02T22:04:07.338Z,25.40
2017-12-02T22:06:33.185Z,27.10
2017-12-02T22:08:59.030Z,24.00
2017-12-02T22:11:24.967Z,23.83
2017-12-02T22:13:50.837Z,24.77
2017-12-02T22:16:16.665Z,23.50
2017-12-02T22:18:42.525Z,21.00
2017-12-02T22:21:08.396Z,19.80
2017-12-02T22:23:34.203Z,18.50
2017-12-02T22:26:00.079Z,22.37
2017-12-02T22:28:25.937Z,22.10
2017-12-02T22:30:51.719Z,23.80
2017-12-02T22:33:17.533Z,23.63
2017-12-02T22:35:43.384Z,22.73
2017-12-02T22:38:09.324Z,22.63
2017-12-02T22:40:35.193Z,21.80
2017-12-02T22:43:01.095Z,25.40
2017-12-02T22:45:26.952Z,28.20
2017-12-02T22:47:54.972Z,22.50
2017-12-02T22:50:20.783Z,23.20
2017-12-02T22:55:17.526Z,26.40
2017-12-02T23:00:38.889Z,21.60
2017-12-02T23:03:04.710Z,25.20
2017-12-02T23:05:30.555Z,21.13
2017-12-02T23:07:56.380Z,24.80
2017-12-02T23:10:22.220Z,22.97
2017-12-02T23:12:48.074Z,25.13
2017-12-02T23:15:13.984Z,22.40
2017-12-02T23:17:39.828Z,22.70
2017-12-02T23:20:05.704Z,21.67
2017-12-02T23:22:31.538Z,26.50
2017-12-02T23:24:57.356Z,29.87
2017-12-02T23:27:23.207Z,27.50
2017-12-02T23:29:49.113Z,27.13
2017-12-02T23:32:14.963Z,25.23
2017-12-02T23:34:40.819Z,22.83
2017-12-02T23:37:06.613Z,29.37
2017-12-02T23:39:32.468Z,29.93
2017-12-02T23:41:58.294Z,33.30
2017-12-02T23:44:24.170Z,31.13
2017-12-02T23:46:49.957Z,24.17
2017-12-02T23:49:15.807Z,27.60
2017-12-02T23:51:41.613Z,25.63
2017-12-02T23:54:07.509Z,23.90
2017-12-02T23:56:33.409Z,24.83
2017-12-02T23:58:59.278Z,23.80
